Time;durP1;ratioP1;P1;durP2;ratioP2;P2;SDS_P1;SDS_P2;PMS_P1;PMS_P2;Temp;Humidity;BMP_temperature;BMP_pressure;BME280_temperature;BME280_humidity;BME280_pressure;Samples;Min_cycle;Max_cycle;Signal;HPM_P1;HPM_P2
2022/04/18 00:03:03;;;;;;;4.50;4.10;;;;;;;;;;6070626;29;20304;-77
2022/04/18 00:06:24;;;;;;;4.00;3.70;;;;;;;;;;6071428;29;20241;-76
2022/04/18 00:09:45;;;;;;;4.87;4.03;;;;;;;;;;6070456;29;20249;-76
2022/04/18 00:13:05;;;;;;;5.40;3.67;;;;;;;;;;6070515;29;20229;-76
2022/04/18 00:16:27;;;;;;;4.57;3.90;;;;;;;;;;6071810;29;20225;-76
2022/04/18 00:19:48;;;;;;;4.43;4.03;;;;;;;;;;6071385;29;20256;-76
2022/04/18 00:23:08;;;;;;;4.90;3.50;;;;;;;;;;6068559;29;20233;-77
2022/04/18 00:26:29;;;;;;;4.87;4.40;;;;;;;;;;6068888;29;20225;-76
2022/04/18 00:29:50;;;;;;;4.53;4.13;;;;;;;;;;6073064;29;20222;-77
2022/04/18 00:33:12;;;;;;;5.00;4.53;;;;;;;;;;6068622;29;20245;-76
2022/04/18 00:36:33;;;;;;;5.33;4.37;;;;;;;;;;6067431;29;20268;-77
2022/04/18 00:39:53;;;;;;;4.57;4.03;;;;;;;;;;6068480;29;20233;-76
2022/04/18 00:43:13;;;;;;;5.83;5.13;;;;;;;;;;6064584;29;20629;-76
2022/04/18 00:46:34;;;;;;;6.80;4.67;;;;;;;;;;6066052;29;20628;-75
2022/04/18 00:49:56;;;;;;;5.10;4.60;;;;;;;;;;6072078;29;20237;-77
2022/04/18 00:53:16;;;;;;;4.27;3.87;;;;;;;;;;6070782;29;20635;-76
2022/04/18 00:56:37;;;;;;;4.53;4.13;;;;;;;;;;6067505;29;20552;-76
2022/04/18 00:59:57;;;;;;;4.87;4.40;;;;;;;;;;6076928;29;20241;-76
2022/04/18 01:03:19;;;;;;;5.63;5.07;;;;;;;;;;6072454;29;20233;-76
2022/04/18 01:06:41;;;;;;;5.97;4.80;;;;;;;;;;6066554;29;20242;-76
2022/04/18 01:10:02;;;;;;;5.47;4.97;;;;;;;;;;6101123;29;20270;-75
2022/04/18 01:13:23;;;;;;;5.17;4.67;;;;;;;;;;6077218;29;20233;-76
2022/04/18 01:16:50;;;;;;;6.50;5.77;;;;;;;;;;6077346;29;20812;-76
2022/04/18 01:20:18;;;;;;;6.10;4.47;;;;;;;;;;6082280;29;20233;-76
2022/04/18 01:24:00;;;;;;;5.43;4.70;;;;;;;;;;6066221;29;20229;-75
2022/04/18 01:31:20;;;;;;;5.07;4.03;;;;;;;;;;6092532;29;20232;-76
2022/04/18 01:34:40;;;;;;;5.33;4.83;;;;;;;;;;6068586;29;20595;-75
2022/04/18 01:38:01;;;;;;;4.90;4.50;;;;;;;;;;6069481;29;20248;-76
2022/04/18 01:41:24;;;;;;;4.57;4.13;;;;;;;;;;6067062;29;20241;-76
2022/04/18 01:44:45;;;;;;;4.50;4.10;;;;;;;;;;6061688;29;20804;-76
2022/04/18 01:48:06;;;;;;;5.33;4.57;;;;;;;;;;6074267;29;20515;-76
2022/04/18 01:51:27;;;;;;;5.47;4.53;;;;;;;;;;6077020;29;20233;-76
2022/04/18 01:54:48;;;;;;;5.47;4.97;;;;;;;;;;6094775;29;20236;-77
2022/04/18 01:58:11;;;;;;;6.03;4.90;;;;;;;;;;6080221;29;20241;-77
2022/04/18 02:01:32;;;;;;;5.27;4.63;;;;;;;;;;6086783;29;20351;-76
2022/04/18 02:04:52;;;;;;;5.93;5.30;;;;;;;;;;6073934;29;20245;-76
2022/04/18 02:08:13;;;;;;;4.97;4.40;;;;;;;;;;6072176;29;20314;-76
2022/04/18 02:11:33;;;;;;;7.07;5.10;;;;;;;;;;6075752;29;20237;-76
2022/04/18 02:14:55;;;;;;;6.60;5.63;;;;;;;;;;6073247;29;20549;-76
2022/04/18 02:18:17;;;;;;;5.80;4.77;;;;;;;;;;6061886;29;20241;-75
2022/04/18 02:21:39;;;;;;;6.60;6.00;;;;;;;;;;6071522;29;20237;-76
2022/04/18 02:25:00;;;;;;;5.50;5.00;;;;;;;;;;6074541;29;20261;-75
2022/04/18 02:28:21;;;;;;;6.40;5.80;;;;;;;;;;6072881;29;20600;-76
2022/04/18 02:35:27;;;;;;;6.93;5.33;;;;;;;;;;6085508;29;20241;-77
2022/04/18 02:38:51;;;;;;;6.23;5.63;;;;;;;;;;6069753;29;20233;-77
2022/04/18 02:42:11;;;;;;;7.13;6.53;;;;;;;;;;6078432;29;20631;-76
2022/04/18 02:45:33;;;;;;;10.43;7.47;;;;;;;;;;6086036;29;20885;-76
2022/04/18 02:49:08;;;;;;;7.03;6.17;;;;;;;;;;6082191;29;20248;-74
2022/04/18 02:52:29;;;;;;;8.03;7.23;;;;;;;;;;6085519;29;20233;-76
2022/04/18 02:55:50;;;;;;;7.23;6.53;;;;;;;;;;6081314;29;20324;-76
2022/04/18 02:59:11;;;;;;;8.23;7.43;;;;;;;;;;6064320;29;20286;-76
2022/04/18 03:02:32;;;;;;;8.13;7.33;;;;;;;;;;6073326;29;20233;-77
2022/04/18 03:05:54;;;;;;;7.57;6.57;;;;;;;;;;6075201;29;20249;-76
2022/04/18 03:09:16;;;;;;;7.17;6.57;;;;;;;;;;6067623;29;20237;-77
2022/04/18 03:12:37;;;;;;;7.33;6.40;;;;;;;;;;6074754;29;20651;-75
2022/04/18 03:15:57;;;;;;;7.83;7.17;;;;;;;;;;6074105;29;20245;-75
2022/04/18 03:19:21;;;;;;;8.30;6.20;;;;;;;;;;6072164;29;20313;-75
2022/04/18 03:22:51;;;;;;;7.10;6.40;;;;;;;;;;6073223;29;20600;-75
2022/04/18 03:26:24;;;;;;;7.53;6.67;;;;;;;;;;6069947;29;20332;-77
2022/04/18 03:30:02;;;;;;;7.63;6.70;;;;;;;;;;6081894;29;20616;-76
2022/04/18 03:33:31;;;;;;;8.47;7.67;;;;;;;;;;6070299;29;20615;-75
2022/04/18 03:40:31;;;;;;;9.43;6.50;;;;;;;;;;6096029;29;20778;-76
2022/04/18 03:43:53;;;;;;;7.30;6.60;;;;;;;;;;6069923;29;20237;-76
2022/04/18 03:47:15;;;;;;;9.37;7.73;;;;;;;;;;6069394;29;20757;-75
2022/04/18 03:50:35;;;;;;;8.17;7.43;;;;;;;;;;6086207;29;20328;-76
2022/04/18 03:53:56;;;;;;;8.70;7.80;;;;;;;;;;6071654;29;20235;-75
2022/04/18 03:57:22;;;;;;;7.73;6.73;;;;;;;;;;6074273;29;20249;-76
2022/04/18 04:00:59;;;;;;;8.33;7.50;;;;;;;;;;6067473;29;20222;-76
2022/04/18 04:04:20;;;;;;;8.30;7.40;;;;;;;;;;6082306;29;20234;-75
2022/04/18 04:07:41;;;;;;;8.57;7.67;;;;;;;;;;6071956;29;20226;-74
2022/04/18 04:11:14;;;;;;;8.47;7.67;;;;;;;;;;6089687;29;20240;-75
2022/04/18 04:14:40;;;;;;;8.03;7.07;;;;;;;;;;6083728;29;20249;-76
2022/04/18 04:18:00;;;;;;;9.37;7.33;;;;;;;;;;6067669;29;20266;-76
2022/04/18 04:21:21;;;;;;;9.90;8.63;;;;;;;;;;6072017;29;20287;-75
2022/04/18 04:24:42;;;;;;;9.87;8.77;;;;;;;;;;6068222;29;20234;-74
2022/04/18 04:28:03;;;;;;;9.37;7.83;;;;;;;;;;6078697;29;20324;-76
2022/04/18 04:31:26;;;;;;;8.17;7.40;;;;;;;;;;6083473;29;20236;-76
2022/04/18 04:34:47;;;;;;;8.77;7.40;;;;;;;;;;6081137;29;20712;-75
2022/04/18 04:38:28;;;;;;;8.03;6.80;;;;;;;;;;6066726;29;20225;-73
2022/04/18 04:41:50;;;;;;;9.40;7.83;;;;;;;;;;6075906;29;20233;-75
2022/04/18 04:45:11;;;;;;;7.10;6.40;;;;;;;;;;6066920;29;20229;-76
2022/04/18 04:48:51;;;;;;;7.83;7.10;;;;;;;;;;6083449;29;20233;-76
2022/04/18 04:52:14;;;;;;;7.97;7.27;;;;;;;;;;6070046;29;20225;-75
2022/04/18 04:55:38;;;;;;;7.40;6.70;;;;;;;;;;6072072;29;20245;-75
2022/04/18 04:58:59;;;;;;;7.87;7.10;;;;;;;;;;6066924;29;20281;-75
2022/04/18 05:02:24;;;;;;;7.80;6.93;;;;;;;;;;6068284;29;20229;-77
2022/04/18 05:05:47;;;;;;;8.93;8.03;;;;;;;;;;6077018;29;20241;-75
2022/04/18 05:09:20;;;;;;;10.57;7.17;;;;;;;;;;6075298;29;20260;-76
2022/04/18 05:12:40;;;;;;;7.70;6.63;;;;;;;;;;6070012;29;20316;-76
2022/04/18 05:16:02;;;;;;;7.87;7.07;;;;;;;;;;6079234;29;20226;-76
2022/04/18 05:19:39;;;;;;;8.07;7.33;;;;;;;;;;6115872;29;20608;-77
2022/04/18 05:23:16;;;;;;;8.40;7.60;;;;;;;;;;6074014;29;20242;-76
2022/04/18 05:26:36;;;;;;;9.87;8.87;;;;;;;;;;6072969;29;20245;-76
2022/04/18 05:29:57;;;;;;;9.03;8.13;;;;;;;;;;6079779;29;20599;-75
2022/04/18 05:33:18;;;;;;;8.17;6.80;;;;;;;;;;6059930;29;20234;-77
2022/04/18 05:37:00;;;;;;;8.23;7.43;;;;;;;;;;6071382;29;20233;-75
2022/04/18 05:40:43;;;;;;;11.13;7.97;;;;;;;;;;6077696;29;20233;-75
2022/04/18 05:44:04;;;;;;;8.43;7.63;;;;;;;;;;6076445;29;20229;-74
2022/04/18 05:47:36;;;;;;;11.23;7.77;;;;;;;;;;6072231;29;20246;-77
2022/04/18 05:50:59;;;;;;;10.03;8.30;;;;;;;;;;6076461;29;20659;-76
2022/04/18 05:54:21;;;;;;;8.90;7.50;;;;;;;;;;6072292;29;20241;-77
2022/04/18 05:57:52;;;;;;;8.97;8.17;;;;;;;;;;6074594;29;20319;-77
2022/04/18 06:01:13;;;;;;;8.47;7.57;;;;;;;;;;6078249;29;20615;-76
2022/04/18 06:04:34;;;;;;;11.90;8.23;;;;;;;;;;6066169;29;20237;-76
2022/04/18 06:08:29;;;;;;;9.50;8.30;;;;;;;;;;6034661;29;20235;-77
2022/04/18 06:11:59;;;;;;;8.90;8.00;;;;;;;;;;6089086;29;20228;-77
2022/04/18 06:15:23;;;;;;;8.97;8.13;;;;;;;;;;6075636;29;20229;-77
2022/04/18 06:18:43;;;;;;;9.03;8.13;;;;;;;;;;6073980;29;20241;-76
2022/04/18 06:22:06;;;;;;;9.87;8.87;;;;;;;;;;6074642;29;21454;-75
2022/04/18 06:25:28;;;;;;;9.87;8.43;;;;;;;;;;6078512;29;20233;-75
2022/04/18 06:28:48;;;;;;;10.73;9.63;;;;;;;;;;6071159;29;20659;-77
2022/04/18 06:32:10;;;;;;;9.40;8.60;;;;;;;;;;6078611;29;20671;-75
2022/04/18 06:35:32;;;;;;;10.53;9.53;;;;;;;;;;6072782;29;20303;-76
2022/04/18 06:38:53;;;;;;;9.50;8.60;;;;;;;;;;6073120;29;20552;-77
2022/04/18 06:42:19;;;;;;;9.47;8.40;;;;;;;;;;6091250;29;20601;-77
2022/04/18 06:45:47;;;;;;;9.53;8.57;;;;;;;;;;6097898;29;20241;-76
2022/04/18 06:49:10;;;;;;;9.63;8.40;;;;;;;;;;6088089;29;20319;-76
2022/04/18 06:53:03;;;;;;;10.00;9.10;;;;;;;;;;6071258;29;20233;-77
2022/04/18 06:57:00;;;;;;;9.60;8.70;;;;;;;;;;6076097;29;20237;-77
2022/04/18 07:00:30;;;;;;;9.73;8.90;;;;;;;;;;6071461;29;20963;-77
2022/04/18 07:03:51;;;;;;;11.33;9.63;;;;;;;;;;6071971;29;20229;-78
2022/04/18 07:07:13;;;;;;;10.60;9.50;;;;;;;;;;6069631;29;20229;-76
2022/04/18 07:10:33;;;;;;;10.00;9.03;;;;;;;;;;6075668;29;20229;-77
2022/04/18 07:13:54;;;;;;;11.43;9.57;;;;;;;;;;6073643;29;20230;-76
2022/04/18 07:17:15;;;;;;;12.30;9.97;;;;;;;;;;6068869;29;20228;-77
2022/04/18 07:20:36;;;;;;;10.83;9.73;;;;;;;;;;6086487;29;20237;-76
2022/04/18 07:23:58;;;;;;;10.17;9.07;;;;;;;;;;6072908;29;20237;-77
2022/04/18 07:27:19;;;;;;;8.97;8.17;;;;;;;;;;6072015;29;20233;-78
2022/04/18 07:30:46;;;;;;;9.50;8.00;;;;;;;;;;6075695;29;20233;-77
2022/04/18 07:34:07;;;;;;;11.40;9.33;;;;;;;;;;6071534;29;20241;-78
2022/04/18 07:37:27;;;;;;;9.57;8.67;;;;;;;;;;6092128;29;20233;-77
2022/04/18 07:40:49;;;;;;;10.57;9.50;;;;;;;;;;6076877;29;20877;-77
2022/04/18 07:44:14;;;;;;;10.43;8.63;;;;;;;;;;6070040;29;20233;-75
2022/04/18 07:47:36;;;;;;;11.57;9.57;;;;;;;;;;6072223;29;20241;-78
2022/04/18 07:54:36;;;;;;;10.43;8.30;;;;;;;;;;6075433;29;20244;-76
2022/04/18 07:57:58;;;;;;;10.33;9.23;;;;;;;;;;6070091;29;20230;-77
2022/04/18 08:01:19;;;;;;;9.23;8.33;;;;;;;;;;6083564;29;20237;-78
2022/04/18 08:04:43;;;;;;;10.43;8.63;;;;;;;;;;6087886;29;20233;-76
2022/04/18 08:08:08;;;;;;;9.27;8.37;;;;;;;;;;6107502;29;20318;-76
2022/04/18 08:11:29;;;;;;;10.43;8.67;;;;;;;;;;6075404;29;20252;-76
2022/04/18 08:14:51;;;;;;;8.50;7.70;;;;;;;;;;6088052;29;20252;-77
2022/04/18 08:18:12;;;;;;;10.00;9.00;;;;;;;;;;6065349;29;20315;-77
2022/04/18 08:21:39;;;;;;;10.50;9.40;;;;;;;;;;6071226;29;20241;-77
2022/04/18 08:25:00;;;;;;;10.20;9.23;;;;;;;;;;6072201;29;20240;-77
2022/04/18 08:28:40;;;;;;;13.17;11.77;;;;;;;;;;6068246;29;20236;-77
2022/04/18 08:32:04;;;;;;;11.30;10.10;;;;;;;;;;6066592;29;20237;-77
2022/04/18 08:35:26;;;;;;;9.57;8.67;;;;;;;;;;6073305;29;20237;-76
2022/04/18 08:38:47;;;;;;;12.60;10.17;;;;;;;;;;6070807;29;20236;-76
2022/04/18 08:42:26;;;;;;;11.17;10.07;;;;;;;;;;6074792;29;20308;-77
2022/04/18 08:45:47;;;;;;;11.03;8.97;;;;;;;;;;6068218;29;20686;-78
2022/04/18 08:52:47;;;;;;;9.57;8.27;;;;;;;;;;6079866;29;20606;-77
2022/04/18 08:56:26;;;;;;;9.27;8.27;;;;;;;;;;6082174;29;20229;-77
2022/04/18 08:59:47;;;;;;;11.07;9.70;;;;;;;;;;6091905;29;20244;-76
2022/04/18 09:03:07;;;;;;;11.63;10.43;;;;;;;;;;6067043;29;20237;-77
2022/04/18 09:06:42;;;;;;;8.77;7.87;;;;;;;;;;6066545;29;20249;-77
2022/04/18 09:10:23;;;;;;;8.30;7.50;;;;;;;;;;6076285;29;20233;-78
2022/04/18 09:13:44;;;;;;;11.07;8.63;;;;;;;;;;6069060;29;20615;-76
2022/04/18 09:17:10;;;;;;;8.97;8.07;;;;;;;;;;6068410;29;20229;-76
2022/04/18 09:20:50;;;;;;;13.00;9.73;;;;;;;;;;6069931;29;20279;-76
2022/04/18 09:24:34;;;;;;;8.80;8.00;;;;;;;;;;6072480;29;20251;-76
2022/04/18 09:28:03;;;;;;;9.67;8.70;;;;;;;;;;6081850;29;20238;-77
2022/04/18 09:31:24;;;;;;;10.50;8.20;;;;;;;;;;6078070;29;20904;-77
2022/04/18 09:34:47;;;;;;;8.40;7.60;;;;;;;;;;6074400;29;20233;-77
2022/04/18 09:38:08;;;;;;;9.33;8.50;;;;;;;;;;6073371;29;20308;-76
2022/04/18 09:42:07;;;;;;;9.83;8.80;;;;;;;;;;6072657;29;20336;-77
2022/04/18 09:45:54;;;;;;;8.10;7.30;;;;;;;;;;6084600;29;20232;-77
2022/04/18 09:49:18;;;;;;;8.30;7.53;;;;;;;;;;6069527;29;20600;-76
2022/04/18 09:52:44;;;;;;;9.23;8.10;;;;;;;;;;6075907;29;20340;-76
2022/04/18 09:56:05;;;;;;;10.60;8.43;;;;;;;;;;6067762;29;20226;-77
2022/04/18 09:59:26;;;;;;;7.57;6.87;;;;;;;;;;6061001;29;20503;-78
2022/04/18 10:02:48;;;;;;;7.97;7.27;;;;;;;;;;6067128;29;20606;-78
2022/04/18 10:06:09;;;;;;;8.80;8.00;;;;;;;;;;6068681;29;20237;-78
2022/04/18 10:09:30;;;;;;;8.77;7.93;;;;;;;;;;6069146;29;20226;-77
2022/04/18 10:12:51;;;;;;;8.33;7.50;;;;;;;;;;6068129;29;20232;-77
2022/04/18 10:16:13;;;;;;;10.53;9.43;;;;;;;;;;6071957;29;20466;-77
2022/04/18 10:19:46;;;;;;;8.63;7.73;;;;;;;;;;6059231;29;20245;-77
2022/04/18 10:23:14;;;;;;;8.90;8.00;;;;;;;;;;6067308;29;20625;-77
2022/04/18 10:26:50;;;;;;;9.50;8.60;;;;;;;;;;6074063;29;20230;-77
2022/04/18 10:30:11;;;;;;;9.37;8.13;;;;;;;;;;6072555;29;20603;-76
2022/04/18 10:33:31;;;;;;;9.07;7.30;;;;;;;;;;6070936;29;20237;-77
2022/04/18 10:36:54;;;;;;;9.23;8.43;;;;;;;;;;6065800;29;20253;-77
2022/04/18 10:40:17;;;;;;;7.53;6.83;;;;;;;;;;6078058;29;20320;-75
2022/04/18 10:43:58;;;;;;;6.83;6.13;;;;;;;;;;6069311;29;20237;-77
2022/04/18 10:47:18;;;;;;;7.20;5.97;;;;;;;;;;6074148;29;20257;-76
2022/04/18 10:50:41;;;;;;;5.63;5.13;;;;;;;;;;6077212;29;20241;-77
2022/04/18 10:54:08;;;;;;;6.77;5.27;;;;;;;;;;6068219;29;20238;-76
2022/04/18 10:57:31;;;;;;;6.80;5.43;;;;;;;;;;6066187;29;20233;-77
2022/04/18 11:00:52;;;;;;;4.97;4.57;;;;;;;;;;6081752;29;20272;-78
2022/04/18 11:04:13;;;;;;;5.40;4.90;;;;;;;;;;6072636;29;20237;-78
2022/04/18 11:07:38;;;;;;;6.87;4.90;;;;;;;;;;6070208;29;20229;-75
2022/04/18 11:11:04;;;;;;;6.13;4.30;;;;;;;;;;6067597;29;20527;-77
2022/04/18 11:14:26;;;;;;;5.73;4.43;;;;;;;;;;6070614;29;20516;-77
2022/04/18 11:17:46;;;;;;;4.80;4.40;;;;;;;;;;6070084;29;20245;-77
2022/04/18 11:21:07;;;;;;;5.10;4.60;;;;;;;;;;6069528;29;20241;-76
2022/04/18 11:24:35;;;;;;;5.23;4.63;;;;;;;;;;6070495;29;20229;-77
2022/04/18 11:27:57;;;;;;;6.10;4.30;;;;;;;;;;6069026;29;20517;-76
2022/04/18 11:31:19;;;;;;;5.05;3.85;;;;;;;;;;6073873;29;20228;-75
2022/04/18 11:34:39;;;;;;;5.27;4.30;;;;;;;;;;6078796;29;20233;-77
2022/04/18 11:38:09;;;;;;;4.88;4.40;;;;;;;;;;6070470;29;20230;-76
2022/04/18 11:41:30;;;;;;;4.78;4.00;;;;;;;;;;6070510;29;20225;-77
2022/04/18 11:44:53;;;;;;;5.82;4.35;;;;;;;;;;6072472;29;20221;-76
2022/04/18 11:48:13;;;;;;;5.00;4.50;;;;;;;;;;6072636;29;20234;-76
2022/04/18 11:51:37;;;;;;;4.53;4.07;;;;;;;;;;6071880;29;20237;-76
2022/04/18 11:54:59;;;;;;;4.50;4.10;;;;;;;;;;6070555;29;20268;-76
2022/04/18 11:58:21;;;;;;;4.55;4.05;;;;;;;;;;6073530;29;20233;-75
2022/04/18 12:09:14;;;;;;;4.25;3.85;;;;;;;;;;6023772;29;20250;-76
2022/04/18 12:12:38;;;;;;;4.00;3.55;;;;;;;;;;6073657;29;20226;-75
2022/04/18 12:16:00;;;;;;;3.53;3.13;;;;;;;;;;6067347;29;20234;-75
2022/04/18 12:19:22;;;;;;;4.22;3.83;;;;;;;;;;6070850;29;20487;-75
2022/04/18 12:22:43;;;;;;;4.15;3.30;;;;;;;;;;6068011;29;20230;-76
2022/04/18 12:26:11;;;;;;;3.78;3.30;;;;;;;;;;6069396;29;20237;-76
2022/04/18 12:29:31;;;;;;;3.53;3.17;;;;;;;;;;6067848;29;20232;-76
2022/04/18 12:32:54;;;;;;;2.60;2.40;;;;;;;;;;6070149;29;20323;-76
2022/04/18 12:36:23;;;;;;;3.00;2.70;;;;;;;;;;6072006;29;20304;-76
2022/04/18 12:39:44;;;;;;;3.65;3.08;;;;;;;;;;6092163;29;20622;-76
2022/04/18 12:43:06;;;;;;;3.90;3.22;;;;;;;;;;6070606;29;20288;-76
2022/04/18 12:46:30;;;;;;;3.72;2.65;;;;;;;;;;6065641;29;20315;-75
2022/04/18 12:50:03;;;;;;;3.00;2.63;;;;;;;;;;6072647;29;20333;-76
2022/04/18 12:53:44;;;;;;;5.85;4.22;;;;;;;;;;6071874;29;20233;-75
2022/04/18 12:57:05;;;;;;;10.10;9.13;;;;;;;;;;6065372;29;20233;-76
2022/04/18 13:00:33;;;;;;;4.60;4.07;;;;;;;;;;6068284;29;20221;-75
2022/04/18 13:03:55;;;;;;;6.20;5.07;;;;;;;;;;6071926;29;20237;-76
2022/04/18 13:07:16;;;;;;;11.82;10.63;;;;;;;;;;6070153;29;20248;-75
2022/04/18 13:10:38;;;;;;;8.82;8.05;;;;;;;;;;6063244;29;20325;-76
2022/04/18 13:14:04;;;;;;;10.93;9.82;;;;;;;;;;6073051;29;20323;-75
2022/04/18 13:17:25;;;;;;;9.25;8.40;;;;;;;;;;6063090;29;20655;-75
2022/04/18 13:20:46;;;;;;;8.10;7.38;;;;;;;;;;6084309;29;20602;-75
2022/04/18 13:24:06;;;;;;;12.73;11.50;;;;;;;;;;6071943;29;20236;-74
2022/04/18 13:27:29;;;;;;;8.95;7.93;;;;;;;;;;6070900;29;20241;-74
2022/04/18 13:30:50;;;;;;;8.38;7.57;;;;;;;;;;6068553;29;20794;-76
2022/04/18 13:34:10;;;;;;;6.60;5.95;;;;;;;;;;6064708;29;20624;-76
2022/04/18 13:37:30;;;;;;;11.25;10.35;;;;;;;;;;6066941;29;20229;-75
2022/04/18 13:40:51;;;;;;;6.05;5.55;;;;;;;;;;6066582;29;20268;-75
2022/04/18 13:44:13;;;;;;;11.60;10.60;;;;;;;;;;6060172;29;20241;-73
2022/04/18 13:47:37;;;;;;;9.20;7.32;;;;;;;;;;6056581;29;20675;-74
2022/04/18 13:51:00;;;;;;;6.20;5.65;;;;;;;;;;6060202;29;20614;-73
2022/04/18 13:54:20;;;;;;;3.85;3.55;;;;;;;;;;6064274;29;20344;-74
2022/04/18 13:57:41;;;;;;;4.95;4.55;;;;;;;;;;6069403;29;20513;-72
2022/04/18 14:01:03;;;;;;;7.82;7.03;;;;;;;;;;6062610;29;20252;-71
2022/04/18 14:04:24;;;;;;;4.03;2.78;;;;;;;;;;6066921;29;20489;-71
2022/04/18 14:07:44;;;;;;;2.40;2.20;;;;;;;;;;6063869;29;20252;-72
2022/04/18 14:11:06;;;;;;;4.07;1.90;;;;;;;;;;6069739;29;20225;-72
2022/04/18 14:21:45;;;;;;;16.40;14.80;;;;;;;;;;6072492;29;20611;-71
2022/04/18 14:25:07;;;;;;;2.80;2.60;;;;;;;;;;6067306;29;20507;-73
2022/04/18 14:28:28;;;;;;;6.03;5.40;;;;;;;;;;6069037;29;20222;-72
2022/04/18 14:31:48;;;;;;;4.43;3.88;;;;;;;;;;6071979;29;20237;-73
2022/04/18 14:35:11;;;;;;;21.38;19.33;;;;;;;;;;6061458;29;20245;-72
2022/04/18 14:38:31;;;;;;;28.38;25.50;;;;;;;;;;6070828;29;20225;-72
2022/04/18 14:41:51;;;;;;;7.25;6.55;;;;;;;;;;6071723;29;20624;-71
2022/04/18 14:45:12;;;;;;;8.57;7.70;;;;;;;;;;6059805;29;20241;-71
2022/04/18 14:48:33;;;;;;;4.45;2.95;;;;;;;;;;6073283;29;20253;-71
2022/04/18 14:51:55;;;;;;;4.60;3.97;;;;;;;;;;6075525;29;20236;-71
2022/04/18 14:55:15;;;;;;;30.45;27.58;;;;;;;;;;6089063;29;20240;-70
2022/04/18 14:58:36;;;;;;;5.35;4.95;;;;;;;;;;6064413;29;20230;-70
2022/04/18 15:01:57;;;;;;;5.18;4.50;;;;;;;;;;6070781;29;20836;-70
2022/04/18 15:05:17;;;;;;;5.90;5.40;;;;;;;;;;6082893;29;20225;-69
2022/04/18 15:08:40;;;;;;;6.60;3.15;;;;;;;;;;6067078;29;20683;-70
2022/04/18 15:12:00;;;;;;;3.67;3.38;;;;;;;;;;6056190;29;20241;-72
2022/04/18 15:15:22;;;;;;;3.20;2.90;;;;;;;;;;6074255;29;20225;-72
2022/04/18 15:18:43;;;;;;;2.90;2.58;;;;;;;;;;6070154;29;20233;-72
2022/04/18 15:22:04;;;;;;;3.50;2.72;;;;;;;;;;6070851;29;20316;-72
2022/04/18 15:25:26;;;;;;;5.25;4.75;;;;;;;;;;6067567;29;20249;-71
2022/04/18 15:28:46;;;;;;;17.17;15.68;;;;;;;;;;6072031;29;20237;-72
2022/04/18 15:32:06;;;;;;;5.30;4.80;;;;;;;;;;6068717;29;20249;-71
2022/04/18 15:35:27;;;;;;;23.35;20.98;;;;;;;;;;6066340;29;20233;-71
2022/04/18 15:38:49;;;;;;;5.55;5.05;;;;;;;;;;6066520;29;20679;-72
2022/04/18 15:42:11;;;;;;;7.85;7.10;;;;;;;;;;6077573;29;20454;-72
2022/04/18 15:45:33;;;;;;;15.90;14.43;;;;;;;;;;6063685;29;20229;-71
2022/04/18 15:48:54;;;;;;;5.22;4.82;;;;;;;;;;6061659;29;20233;-71
2022/04/18 15:52:14;;;;;;;4.88;2.85;;;;;;;;;;6066873;29;20515;-72
2022/04/18 15:55:36;;;;;;;4.50;2.78;;;;;;;;;;6071168;29;20233;-71
2022/04/18 15:59:01;;;;;;;2.65;2.45;;;;;;;;;;6069438;29;20234;-71
2022/04/18 16:02:22;;;;;;;13.35;11.13;;;;;;;;;;6056519;29;20229;-72
2022/04/18 16:05:43;;;;;;;17.17;15.35;;;;;;;;;;6068352;29;22056;-72
2022/04/18 16:09:03;;;;;;;8.90;8.05;;;;;;;;;;6063816;29;20702;-72
2022/04/18 16:12:24;;;;;;;13.20;11.85;;;;;;;;;;6062950;29;20588;-72
2022/04/18 16:15:46;;;;;;;12.20;11.10;;;;;;;;;;6070094;29;20233;-72
2022/04/18 16:19:06;;;;;;;3.65;3.35;;;;;;;;;;6061588;29;20640;-73
2022/04/18 16:22:27;;;;;;;3.80;2.72;;;;;;;;;;6069345;29;20241;-73
2022/04/18 16:25:48;;;;;;;2.50;2.30;;;;;;;;;;6070433;29;20635;-73
2022/04/18 16:32:48;;;;;;;4.88;4.38;;;;;;;;;;6070907;29;20654;-73
2022/04/18 16:36:09;;;;;;;7.30;6.60;;;;;;;;;;6065266;29;20344;-72
2022/04/18 16:39:30;;;;;;;6.38;5.47;;;;;;;;;;6077424;29;20244;-73
2022/04/18 16:46:28;;;;;;;5.28;4.78;;;;;;;;;;6067022;29;20311;-72
2022/04/18 16:49:50;;;;;;;5.63;4.30;;;;;;;;;;6065747;29;20523;-73
2022/04/18 16:53:10;;;;;;;3.53;2.50;;;;;;;;;;6065103;29;20257;-73
2022/04/18 16:56:31;;;;;;;13.02;11.55;;;;;;;;;;6060269;29;20679;-72
2022/04/18 16:59:52;;;;;;;4.70;4.30;;;;;;;;;;6060139;29;20233;-72
2022/04/18 17:03:12;;;;;;;5.90;4.82;;;;;;;;;;6066159;29;20260;-72
2022/04/18 17:06:34;;;;;;;5.22;3.03;;;;;;;;;;6065200;29;20232;-73
2022/04/18 17:09:55;;;;;;;5.28;4.78;;;;;;;;;;6079314;29;20237;-72
2022/04/18 17:13:15;;;;;;;4.13;3.72;;;;;;;;;;6065161;29;20715;-71
2022/04/18 17:16:35;;;;;;;3.97;3.58;;;;;;;;;;6062877;29;20261;-74
2022/04/18 17:19:56;;;;;;;6.72;4.85;;;;;;;;;;6065929;29;20564;-73
2022/04/18 17:23:18;;;;;;;7.25;5.28;;;;;;;;;;6066618;29;20233;-74
2022/04/18 17:26:38;;;;;;;6.22;5.63;;;;;;;;;;6067099;29;20488;-73
2022/04/18 17:30:00;;;;;;;5.70;4.57;;;;;;;;;;6070356;29;20241;-73
2022/04/18 17:33:20;;;;;;;5.88;5.35;;;;;;;;;;6063151;29;20258;-73
2022/04/18 17:36:40;;;;;;;7.53;6.63;;;;;;;;;;6068188;29;20233;-72
2022/04/18 17:40:02;;;;;;;9.13;6.90;;;;;;;;;;6065480;29;20611;-72
2022/04/18 17:43:24;;;;;;;10.95;8.27;;;;;;;;;;6067931;29;20237;-73
2022/04/18 17:46:44;;;;;;;7.95;6.68;;;;;;;;;;6068687;29;20233;-71
2022/04/18 17:50:05;;;;;;;10.98;8.30;;;;;;;;;;6065332;29;20229;-72
2022/04/18 17:57:14;;;;;;;9.40;8.40;;;;;;;;;;6029750;29;20228;-73
2022/04/18 18:00:35;;;;;;;11.77;9.07;;;;;;;;;;6078883;29;20531;-72
2022/04/18 18:03:55;;;;;;;10.27;7.85;;;;;;;;;;6068206;29;20229;-73
2022/04/18 18:07:16;;;;;;;14.15;9.93;;;;;;;;;;6062756;29;20332;-73
2022/04/18 18:10:36;;;;;;;11.10;8.95;;;;;;;;;;6068281;29;20233;-72
2022/04/18 18:13:58;;;;;;;12.73;9.02;;;;;;;;;;6062775;29;20225;-73
2022/04/18 18:17:19;;;;;;;12.50;8.88;;;;;;;;;;6060725;29;20612;-68
2022/04/18 18:20:39;;;;;;;12.13;7.82;;;;;;;;;;6060120;29;20934;-71
2022/04/18 18:24:00;;;;;;;10.35;8.52;;;;;;;;;;6062560;29;20222;-71
2022/04/18 18:27:21;;;;;;;8.68;6.90;;;;;;;;;;6072768;29;20241;-73
2022/04/18 18:30:43;;;;;;;9.25;6.57;;;;;;;;;;6081694;29;20237;-72
2022/04/18 18:34:04;;;;;;;7.53;6.00;;;;;;;;;;6062156;29;20233;-71
2022/04/18 18:37:24;;;;;;;6.95;5.90;;;;;;;;;;6066130;29;20256;-72
2022/04/18 18:40:46;;;;;;;8.15;5.95;;;;;;;;;;6063359;29;20225;-72
2022/04/18 18:44:06;;;;;;;7.03;5.18;;;;;;;;;;6061067;29;20716;-72
2022/04/18 18:47:28;;;;;;;6.28;5.18;;;;;;;;;;6060921;29;20229;-70
2022/04/18 18:54:27;;;;;;;6.50;4.93;;;;;;;;;;6056092;29;20233;-70
2022/04/18 18:57:48;;;;;;;6.70;5.65;;;;;;;;;;6067503;29;20607;-72
2022/04/18 19:01:08;;;;;;;5.87;5.30;;;;;;;;;;6054289;29;126379;-71
2022/04/18 19:04:31;;;;;;;5.47;4.60;;;;;;;;;;6062996;29;20797;-71
2022/04/18 19:07:51;;;;;;;5.90;5.30;;;;;;;;;;6066837;29;20363;-71
2022/04/18 19:11:15;;;;;;;8.27;6.47;;;;;;;;;;6068491;29;20623;-70
2022/04/18 19:14:36;;;;;;;5.93;4.60;;;;;;;;;;6085885;29;20319;-69
2022/04/18 19:28:53;;;;;;;9.00;7.47;;;;;;;;;;6065080;29;20237;-70
2022/04/18 19:32:14;;;;;;;5.97;4.95;;;;;;;;;;6066250;29;20610;-70
2022/04/18 19:35:34;;;;;;;8.83;6.23;;;;;;;;;;6083316;29;20229;-71
2022/04/18 19:38:56;;;;;;;5.63;5.07;;;;;;;;;;6067729;29;20257;-70
2022/04/18 19:42:18;;;;;;;7.23;5.40;;;;;;;;;;6063322;29;20249;-71
2022/04/18 19:45:38;;;;;;;5.70;4.97;;;;;;;;;;6089068;29;20232;-69
2022/04/18 19:48:59;;;;;;;4.90;3.77;;;;;;;;;;6083027;29;20233;-70
2022/04/18 19:52:19;;;;;;;5.33;3.57;;;;;;;;;;6064627;29;20229;-70
2022/04/18 19:55:41;;;;;;;4.33;3.63;;;;;;;;;;6066318;29;20269;-70
2022/04/18 19:59:01;;;;;;;5.37;3.67;;;;;;;;;;6063881;29;20229;-71
2022/04/18 20:02:23;;;;;;;5.40;4.70;;;;;;;;;;6062719;29;20233;-71
2022/04/18 20:05:43;;;;;;;5.03;3.67;;;;;;;;;;6072273;29;20951;-71
2022/04/18 20:09:05;;;;;;;5.43;4.30;;;;;;;;;;6069687;29;20342;-71
2022/04/18 20:12:28;;;;;;;4.27;3.37;;;;;;;;;;6061380;29;20237;-70
2022/04/18 20:15:49;;;;;;;3.80;3.37;;;;;;;;;;6055329;29;20233;-71
2022/04/18 20:19:11;;;;;;;5.10;3.63;;;;;;;;;;6062477;29;20252;-72
2022/04/18 20:22:31;;;;;;;7.87;6.63;;;;;;;;;;6067018;29;20240;-70
2022/04/18 20:25:52;;;;;;;5.97;3.97;;;;;;;;;;6061922;29;20641;-71
2022/04/18 20:29:14;;;;;;;4.73;3.90;;;;;;;;;;6058536;29;20522;-69
2022/04/18 20:32:35;;;;;;;6.17;4.30;;;;;;;;;;6058678;29;21175;-71
2022/04/18 20:35:56;;;;;;;5.13;4.20;;;;;;;;;;6061378;29;20265;-70
2022/04/18 20:39:16;;;;;;;5.33;4.83;;;;;;;;;;6060357;29;20583;-71
2022/04/18 20:42:37;;;;;;;4.87;4.40;;;;;;;;;;6059212;29;20587;-71
2022/04/18 20:45:59;;;;;;;4.00;3.43;;;;;;;;;;6061334;29;20260;-71
2022/04/18 20:49:19;;;;;;;3.97;3.30;;;;;;;;;;6061472;29;20276;-71
2022/04/18 20:59:57;;;;;;;3.60;3.27;;;;;;;;;;6069974;29;20888;-70
2022/04/18 21:03:19;;;;;;;4.00;3.60;;;;;;;;;;6075884;29;20290;-70
2022/04/18 21:06:44;;;;;;;4.50;3.67;;;;;;;;;;6062446;29;20614;-72
2022/04/18 21:10:05;;;;;;;3.17;2.70;;;;;;;;;;6061201;29;21791;-71
2022/04/18 21:13:25;;;;;;;4.20;3.70;;;;;;;;;;6065485;29;20654;-71
2022/04/18 21:16:46;;;;;;;4.70;3.50;;;;;;;;;;6063205;29;20623;-70
2022/04/18 21:20:09;;;;;;;4.93;3.73;;;;;;;;;;6057173;29;20229;-71
2022/04/18 21:23:29;;;;;;;4.23;3.30;;;;;;;;;;6048478;29;20241;-70